createdAt,value
2017-03-29T00:00:02.512Z,11.93
2017-03-29T00:00:06.712Z,11.82
2017-03-29T00:00:11.048Z,11.77
2017-03-29T00:00:15.470Z,11.81
2017-03-29T00:00:19.665Z,11.82
2017-03-29T00:00:23.978Z,11.79
2017-03-29T00:00:28.406Z,11.81
2017-03-29T00:00:32.734Z,11.81
2017-03-29T00:00:37.159Z,11.82
2017-03-29T00:00:41.477Z,11.87
2017-03-29T00:00:45.937Z,11.82
2017-03-29T00:00:50.363Z,11.79
2017-03-29T00:00:54.791Z,11.81
2017-03-29T00:00:59.218Z,11.79
2017-03-29T00:01:04.012Z,11.78
2017-03-29T00:01:08.441Z,11.81
2017-03-29T00:01:12.753Z,11.78
2017-03-29T00:01:17.184Z,11.87
2017-03-29T00:01:21.609Z,11.78
2017-03-29T00:01:25.804Z,11.78
2017-03-29T00:01:30.233Z,11.79
2017-03-29T00:01:34.540Z,11.72
2017-03-29T00:01:38.967Z,11.87
2017-03-29T00:01:43.393Z,11.79
2017-03-29T00:01:47.822Z,11.81
2017-03-29T00:01:52.264Z,11.81
2017-03-29T00:01:56.574Z,11.78
2017-03-29T00:02:01.001Z,11.79
2017-03-29T00:02:05.310Z,11.79
2017-03-29T00:02:09.506Z,11.87
2017-03-29T00:02:13.814Z,11.84
2017-03-29T00:02:18.238Z,11.77
2017-03-29T00:02:22.554Z,11.77
2017-03-29T00:02:26.891Z,11.77
2017-03-29T00:02:31.318Z,11.74
2017-03-29T00:02:35.628Z,11.74
2017-03-29T00:02:40.055Z,11.81
2017-03-29T00:02:44.515Z,11.81
2017-03-29T00:02:48.934Z,11.72
2017-03-29T00:02:53.362Z,11.75
2017-03-29T00:02:57.785Z,11.74
2017-03-29T00:03:02.525Z,11.77
2017-03-29T00:03:06.844Z,11.77
2017-03-29T00:03:11.152Z,11.74
2017-03-29T00:03:15.462Z,11.77
2017-03-29T00:03:19.889Z,11.72
2017-03-29T00:03:24.317Z,11.72
2017-03-29T00:03:28.743Z,11.7
2017-03-29T00:03:33.175Z,11.72
2017-03-29T00:03:37.516Z,11.81
2017-03-29T00:03:41.941Z,11.85
2017-03-29T00:03:46.368Z,11.87
2017-03-29T00:03:50.798Z,11.7
2017-03-29T00:03:55.223Z,11.77
2017-03-29T00:03:59.647Z,11.75
2017-03-29T00:04:04.082Z,11.72
2017-03-29T00:04:08.391Z,11.75
2017-03-29T00:04:12.822Z,11.75
2017-03-29T00:04:17.274Z,11.82
2017-03-29T00:04:21.695Z,11.69
2017-03-29T00:04:26.122Z,11.75
2017-03-29T00:04:30.432Z,11.75
2017-03-29T00:04:34.739Z,11.72
2017-03-29T00:04:39.043Z,11.77
2017-03-29T00:04:43.466Z,11.78
2017-03-29T00:04:47.786Z,11.79
2017-03-29T00:04:52.208Z,11.78
2017-03-29T00:04:56.632Z,11.79
2017-03-29T00:05:01.062Z,11.75
2017-03-29T00:05:05.377Z,11.75
2017-03-29T00:05:09.718Z,11.77
2017-03-29T00:05:14.027Z,11.75
2017-03-29T00:05:18.232Z,11.67
2017-03-29T00:05:22.554Z,11.77
2017-03-29T00:05:26.746Z,11.64
2017-03-29T00:05:30.944Z,11.75
2017-03-29T00:05:35.375Z,11.74
2017-03-29T00:05:39.702Z,11.75
2017-03-29T00:05:44.163Z,11.69
2017-03-29T00:05:48.480Z,11.79
2017-03-29T00:05:52.796Z,11.75
2017-03-29T00:05:57.220Z,11.78
2017-03-29T00:06:01.552Z,11.74
2017-03-29T00:06:05.869Z,11.79
2017-03-29T00:06:10.303Z,11.69
2017-03-29T00:06:14.622Z,11.7
2017-03-29T00:06:18.935Z,11.74
2017-03-29T00:06:23.366Z,11.75
2017-03-29T00:06:27.672Z,11.69
2017-03-29T00:06:31.978Z,11.69
2017-03-29T00:06:36.408Z,11.75
2017-03-29T00:06:40.831Z,11.66
2017-03-29T00:06:45.266Z,11.67
2017-03-29T00:06:49.582Z,11.72
2017-03-29T00:06:53.894Z,11.72
2017-03-29T00:06:58.204Z,11.66
2017-03-29T00:07:02.176Z,11.74
2017-03-29T00:07:06.497Z,11.64
2017-03-29T00:07:10.936Z,11.64
2017-03-29T00:07:15.366Z,11.69
2017-03-29T00:07:19.796Z,11.67
2017-03-29T00:07:24.020Z,11.69
2017-03-29T00:07:28.444Z,11.66
2017-03-29T00:07:32.757Z,11.72
2017-03-29T00:07:37.195Z,11.69
2017-03-29T00:07:41.512Z,11.64
2017-03-29T00:07:45.942Z,11.75
2017-03-29T00:07:50.266Z,11.64
2017-03-29T00:07:54.722Z,11.64
2017-03-29T00:07:59.148Z,11.66
2017-03-29T00:08:03.495Z,11.62
2017-03-29T00:08:07.819Z,11.69
2017-03-29T00:08:12.248Z,11.67
2017-03-29T00:08:16.709Z,11.66
2017-03-29T00:08:21.019Z,11.69
2017-03-29T00:08:25.339Z,11.64
2017-03-29T00:08:29.792Z,11.66
2017-03-29T00:08:34.112Z,11.75
2017-03-29T00:08:38.415Z,11.66
2017-03-29T00:08:42.604Z,11.64
2017-03-29T00:08:47.047Z,11.69
2017-03-29T00:08:51.120Z,11.7
2017-03-29T00:08:55.550Z,11.64
2017-03-29T00:08:59.861Z,11.62
2017-03-29T00:09:04.581Z,11.69
2017-03-29T00:09:08.892Z,11.66
2017-03-29T00:09:13.204Z,11.67
2017-03-29T00:09:17.643Z,11.75
2017-03-29T00:09:22.081Z,11.67
2017-03-29T00:09:26.520Z,11.69
2017-03-29T00:09:30.860Z,11.72
2017-03-29T00:09:35.172Z,11.66
2017-03-29T00:09:39.368Z,11.7
2017-03-29T00:09:43.803Z,11.67
2017-03-29T00:09:48.154Z,11.7
2017-03-29T00:09:52.470Z,11.67
2017-03-29T00:09:56.896Z,11.66
2017-03-29T00:10:01.341Z,11.72
2017-03-29T00:10:05.654Z,11.77
2017-03-29T00:10:10.083Z,11.69
2017-03-29T00:10:14.511Z,11.66
2017-03-29T00:10:18.825Z,11.66
2017-03-29T00:10:23.020Z,11.74
2017-03-29T00:10:27.337Z,11.69
2017-03-29T00:10:31.775Z,11.66
2017-03-29T00:10:36.197Z,11.69
2017-03-29T00:10:40.387Z,11.74
2017-03-29T00:10:44.819Z,11.69
2017-03-29T00:10:49.134Z,11.69
2017-03-29T00:10:53.562Z,11.74
2017-03-29T00:10:57.994Z,11.66
2017-03-29T00:11:02.560Z,11.64
2017-03-29T00:11:06.993Z,11.62
2017-03-29T00:11:11.462Z,11.72
2017-03-29T00:11:15.888Z,11.7
2017-03-29T00:11:20.321Z,11.67
2017-03-29T00:11:24.749Z,11.69
2017-03-29T00:11:29.070Z,11.72
2017-03-29T00:11:33.499Z,11.69
2017-03-29T00:11:37.924Z,11.72
2017-03-29T00:11:42.262Z,11.67
2017-03-29T00:11:46.687Z,11.66
2017-03-29T00:11:51.122Z,11.66
2017-03-29T00:11:55.555Z,11.69
2017-03-29T00:11:59.984Z,11.74
2017-03-29T00:12:04.293Z,11.7
2017-03-29T00:12:08.369Z,11.74
2017-03-29T00:12:12.795Z,11.64
2017-03-29T00:12:17.220Z,11.69
2017-03-29T00:12:21.420Z,11.77
2017-03-29T00:12:25.608Z,11.75
2017-03-29T00:12:30.038Z,11.67
2017-03-29T00:12:34.465Z,11.7
2017-03-29T00:12:38.891Z,11.67
2017-03-29T00:12:43.313Z,11.69
2017-03-29T00:12:47.738Z,11.67
2017-03-29T00:12:52.161Z,11.64
2017-03-29T00:12:56.581Z,11.72
2017-03-29T00:13:01.003Z,11.74
2017-03-29T00:13:05.561Z,11.66
2017-03-29T00:13:09.878Z,11.7
2017-03-29T00:13:14.072Z,11.66
2017-03-29T00:13:18.496Z,11.69
2017-03-29T00:13:22.924Z,11.66
2017-03-29T00:13:27.351Z,11.64
2017-03-29T00:13:31.779Z,11.7
2017-03-29T00:13:36.208Z,11.66
2017-03-29T00:13:40.631Z,11.67
2017-03-29T00:13:45.056Z,11.64
2017-03-29T00:13:49.367Z,11.7
2017-03-29T00:13:53.801Z,11.72
2017-03-29T00:13:58.224Z,11.69
2017-03-29T00:14:02.676Z,11.69
2017-03-29T00:14:07.109Z,11.7
2017-03-29T00:14:11.411Z,11.66
2017-03-29T00:14:15.716Z,11.75
2017-03-29T00:14:20.028Z,11.77
2017-03-29T00:14:24.335Z,11.72
2017-03-29T00:14:28.640Z,11.7
2017-03-29T00:14:33.075Z,11.75
2017-03-29T00:14:37.394Z,11.67
2017-03-29T00:14:41.719Z,11.69
2017-03-29T00:14:46.031Z,11.66
2017-03-29T00:14:50.467Z,11.66
2017-03-29T00:14:54.912Z,11.67
2017-03-29T00:14:59.344Z,11.69
2017-03-29T00:15:04.028Z,11.62
2017-03-29T00:15:08.345Z,11.72
2017-03-29T00:15:12.782Z,11.69
2017-03-29T00:15:17.114Z,11.7
2017-03-29T00:15:21.547Z,11.69
2017-03-29T00:15:25.863Z,11.66
2017-03-29T00:15:30.204Z,11.7
2017-03-29T00:15:34.628Z,11.74
2017-03-29T00:15:39.053Z,11.69
2017-03-29T00:15:43.248Z,11.75
2017-03-29T00:15:47.566Z,11.64
2017-03-29T00:15:51.994Z,11.69
2017-03-29T00:15:56.314Z,11.66
2017-03-29T00:16:00.742Z,11.69
2017-03-29T00:16:05.166Z,11.69
2017-03-29T00:16:09.233Z,11.67
2017-03-29T00:16:13.659Z,11.67
2017-03-29T00:16:17.976Z,11.66
2017-03-29T00:16:22.424Z,11.67
2017-03-29T00:16:26.740Z,11.66
2017-03-29T00:16:30.952Z,11.7
2017-03-29T00:16:35.270Z,11.7
2017-03-29T00:16:39.576Z,11.67
2017-03-29T00:16:43.645Z,11.66
2017-03-29T00:16:47.954Z,11.7
2017-03-29T00:16:52.382Z,11.69
2017-03-29T00:16:56.833Z,11.66
2017-03-29T00:17:01.141Z,11.69
2017-03-29T00:17:05.501Z,11.62
2017-03-29T00:17:09.808Z,11.7
2017-03-29T00:17:14.239Z,11.64
2017-03-29T00:17:18.545Z,11.67
2017-03-29T00:17:22.967Z,11.66
2017-03-29T00:17:27.392Z,11.7
2017-03-29T00:17:31.698Z,11.74
2017-03-29T00:17:36.120Z,11.66
2017-03-29T00:17:40.425Z,11.67
2017-03-29T00:17:44.855Z,11.72
2017-03-29T00:17:49.286Z,11.74
2017-03-29T00:17:53.711Z,11.72
2017-03-29T00:17:58.138Z,11.77
2017-03-29T00:18:02.666Z,11.72
2017-03-29T00:18:07.090Z,11.69
2017-03-29T00:18:11.158Z,11.72
2017-03-29T00:18:15.593Z,11.74
2017-03-29T00:18:20.018Z,11.69
2017-03-29T00:18:24.441Z,11.64
2017-03-29T00:18:28.869Z,11.72
2017-03-29T00:18:33.060Z,11.64
2017-03-29T00:18:37.481Z,11.69
2017-03-29T00:18:41.905Z,11.64
2017-03-29T00:18:46.244Z,11.69
2017-03-29T00:18:50.666Z,11.74
2017-03-29T00:18:55.089Z,11.7
2017-03-29T00:18:59.513Z,11.7
2017-03-29T00:19:04.296Z,11.64
2017-03-29T00:19:08.717Z,11.69
2017-03-29T00:19:13.138Z,11.67
2017-03-29T00:19:17.565Z,11.72
2017-03-29T00:19:21.870Z,11.75
2017-03-29T00:19:26.183Z,11.69
2017-03-29T00:19:30.376Z,11.69
2017-03-29T00:19:34.809Z,11.69
2017-03-29T00:19:39.124Z,11.72
2017-03-29T00:19:43.578Z,11.72
2017-03-29T00:19:47.885Z,11.64
2017-03-29T00:19:52.320Z,11.67
2017-03-29T00:19:56.746Z,11.64
2017-03-29T00:20:01.057Z,11.72
2017-03-29T00:20:05.517Z,11.72
2017-03-29T00:20:09.832Z,11.69
2017-03-29T00:20:14.044Z,11.69
2017-03-29T00:20:18.479Z,11.7
2017-03-29T00:20:22.792Z,11.74
2017-03-29T00:20:27.106Z,11.7
2017-03-29T00:20:31.533Z,11.7
2017-03-29T00:20:35.958Z,11.69
2017-03-29T00:20:40.385Z,11.67
2017-03-29T00:20:44.819Z,11.67
2017-03-29T00:20:49.253Z,11.66
2017-03-29T00:20:53.679Z,11.69
2017-03-29T00:20:58.120Z,11.7
2017-03-29T00:21:02.563Z,11.66
2017-03-29T00:21:06.994Z,11.72
2017-03-29T00:21:11.428Z,11.69
2017-03-29T00:21:15.628Z,11.64
2017-03-29T00:21:19.708Z,11.75
2017-03-29T00:21:24.023Z,11.72
2017-03-29T00:21:28.332Z,11.74
2017-03-29T00:21:32.762Z,11.7
2017-03-29T00:21:37.070Z,11.69
2017-03-29T00:21:41.382Z,11.72
2017-03-29T00:21:45.825Z,11.69
2017-03-29T00:21:50.260Z,11.69
2017-03-29T00:21:54.685Z,11.69
2017-03-29T00:21:58.992Z,11.64
2017-03-29T00:22:03.533Z,11.67
2017-03-29T00:22:07.841Z,11.66
2017-03-29T00:22:12.150Z,11.72
2017-03-29T00:22:16.351Z,11.64
2017-03-29T00:22:20.667Z,11.69
2017-03-29T00:22:25.089Z,11.69
2017-03-29T00:22:29.402Z,11.72
2017-03-29T00:22:33.827Z,11.67
2017-03-29T00:22:38.256Z,11.69
2017-03-29T00:22:42.685Z,11.64
2017-03-29T00:22:47.103Z,11.72
2017-03-29T00:22:51.539Z,11.72
2017-03-29T00:22:55.974Z,11.72
2017-03-29T00:23:00.395Z,11.69
2017-03-29T00:23:05.130Z,11.64
2017-03-29T00:23:09.555Z,11.66
2017-03-29T00:23:13.868Z,11.74
2017-03-29T00:23:18.293Z,11.66
2017-03-29T00:23:22.721Z,11.74
2017-03-29T00:23:27.142Z,11.67
2017-03-29T00:23:31.444Z,11.66
2017-03-29T00:23:35.751Z,11.75
2017-03-29T00:23:40.175Z,11.69
2017-03-29T00:23:44.607Z,11.64
2017-03-29T00:23:48.912Z,11.62
2017-03-29T00:23:53.340Z,11.67
2017-03-29T00:23:57.771Z,11.72
2017-03-29T00:24:02.497Z,11.75
2017-03-29T00:24:06.742Z,11.7
2017-03-29T00:24:11.196Z,11.62
2017-03-29T00:24:15.625Z,11.66
2017-03-29T00:24:20.046Z,11.62
2017-03-29T00:24:24.469Z,11.67
2017-03-29T00:24:28.902Z,11.64
2017-03-29T00:24:33.210Z,11.62
2017-03-29T00:24:37.638Z,11.67
2017-03-29T00:24:41.944Z,11.69
2017-03-29T00:24:46.390Z,11.7
2017-03-29T00:24:50.816Z,11.64
2017-03-29T00:24:55.132Z,11.66
2017-03-29T00:24:59.564Z,11.66
2017-03-29T00:25:04.141Z,11.7
2017-03-29T00:25:08.574Z,11.7
2017-03-29T00:25:13.000Z,11.66
2017-03-29T00:25:17.426Z,11.67
2017-03-29T00:25:21.624Z,11.7
2017-03-29T00:25:26.053Z,11.66
2017-03-29T00:25:30.489Z,11.67
2017-03-29T00:25:34.909Z,11.64
2017-03-29T00:25:39.345Z,11.67
2017-03-29T00:25:43.688Z,11.7
2017-03-29T00:25:48.111Z,11.69
2017-03-29T00:25:52.552Z,11.72
2017-03-29T00:25:56.658Z,11.69
2017-03-29T00:26:00.970Z,11.66
2017-03-29T00:26:05.561Z,11.66
2017-03-29T00:26:09.876Z,11.69
2017-03-29T00:26:14.303Z,11.64
2017-03-29T00:26:18.732Z,11.67
2017-03-29T00:26:23.049Z,11.66
2017-03-29T00:26:27.358Z,11.6
2017-03-29T00:26:31.558Z,11.69
2017-03-29T00:26:35.863Z,11.67
2017-03-29T00:26:40.176Z,11.67
2017-03-29T00:26:44.602Z,11.69
2017-03-29T00:26:49.026Z,11.67
2017-03-29T00:26:53.332Z,11.7
2017-03-29T00:26:57.760Z,11.64
2017-03-29T00:27:02.203Z,11.69
2017-03-29T00:27:06.516Z,11.67
2017-03-29T00:27:10.947Z,11.66
2017-03-29T00:27:15.378Z,11.7
2017-03-29T00:27:19.801Z,11.67
2017-03-29T00:27:24.230Z,11.69
2017-03-29T00:27:28.657Z,11.67
2017-03-29T00:27:32.852Z,11.69
2017-03-29T00:27:37.163Z,11.63
2017-03-29T00:27:41.590Z,11.74
2017-03-29T00:27:45.796Z,11.64
2017-03-29T00:27:49.985Z,11.62
2017-03-29T00:27:54.408Z,11.66
2017-03-29T00:27:58.827Z,11.7
2017-03-29T00:28:03.260Z,11.66
2017-03-29T00:28:07.594Z,11.66
2017-03-29T00:28:12.015Z,11.7
2017-03-29T00:28:16.445Z,11.69
2017-03-29T00:28:20.759Z,11.67
2017-03-29T00:28:25.187Z,11.64
2017-03-29T00:28:29.613Z,11.69
2017-03-29T00:28:34.036Z,11.67
2017-03-29T00:28:38.457Z,11.69
2017-03-29T00:28:42.655Z,11.72
2017-03-29T00:28:47.074Z,11.77
2017-03-29T00:28:51.502Z,11.67
2017-03-29T00:28:55.929Z,11.72
2017-03-29T00:29:00.356Z,11.64
2017-03-29T00:29:04.777Z,11.7
2017-03-29T00:29:09.200Z,11.69
2017-03-29T00:29:13.634Z,11.7
2017-03-29T00:29:18.059Z,11.69
2017-03-29T00:29:22.363Z,11.69
2017-03-29T00:29:26.796Z,11.64
2017-03-29T00:29:31.107Z,11.64
2017-03-29T00:29:35.526Z,11.64
2017-03-29T00:29:39.947Z,11.63
2017-03-29T00:29:44.373Z,11.69
2017-03-29T00:29:48.804Z,11.67
2017-03-29T00:29:53.231Z,11.7
2017-03-29T00:29:57.649Z,11.69
2017-03-29T00:30:01.957Z,11.66
2017-03-29T00:30:06.267Z,11.74
2017-03-29T00:30:10.691Z,11.72
2017-03-29T00:30:15.113Z,11.69
2017-03-29T00:30:19.543Z,11.67
2017-03-29T00:30:23.878Z,11.66
2017-03-29T00:30:28.312Z,11.66
2017-03-29T00:30:32.625Z,11.67
2017-03-29T00:30:36.947Z,11.66
2017-03-29T00:30:41.380Z,11.69
2017-03-29T00:30:45.804Z,11.66
2017-03-29T00:30:50.235Z,11.67
2017-03-29T00:30:54.662Z,11.67
2017-03-29T00:30:59.082Z,11.62
2017-03-29T00:31:03.592Z,11.64
2017-03-29T00:31:08.015Z,11.72
2017-03-29T00:31:12.448Z,11.69
2017-03-29T00:31:16.646Z,11.64
2017-03-29T00:31:21.072Z,11.66
2017-03-29T00:31:25.501Z,11.67
2017-03-29T00:31:29.927Z,11.72
2017-03-29T00:31:34.239Z,11.67
2017-03-29T00:31:38.663Z,11.63
2017-03-29T00:31:43.138Z,11.69
2017-03-29T00:31:47.575Z,11.66
2017-03-29T00:31:52.001Z,11.64
2017-03-29T00:31:56.424Z,11.62
2017-03-29T00:32:00.619Z,11.66
2017-03-29T00:32:04.859Z,11.69
2017-03-29T00:32:09.170Z,11.69
2017-03-29T00:32:13.599Z,11.69
2017-03-29T00:32:18.029Z,11.72
2017-03-29T00:32:22.463Z,11.7
2017-03-29T00:32:26.891Z,11.67
2017-03-29T00:32:31.331Z,11.6
2017-03-29T00:32:35.755Z,11.7
2017-03-29T00:32:40.188Z,11.67
2017-03-29T00:32:44.495Z,11.67
2017-03-29T00:32:48.924Z,11.67
2017-03-29T00:32:53.357Z,11.66
2017-03-29T00:32:57.780Z,11.69
2017-03-29T00:33:02.235Z,11.7
2017-03-29T00:33:06.548Z,11.74
2017-03-29T00:33:10.972Z,11.63
2017-03-29T00:33:15.400Z,11.64
2017-03-29T00:33:19.824Z,11.66
2017-03-29T00:33:24.248Z,11.66
2017-03-29T00:33:28.671Z,11.67
2017-03-29T00:33:32.984Z,11.69
2017-03-29T00:33:37.329Z,11.69
2017-03-29T00:33:41.754Z,11.67
2017-03-29T00:33:46.060Z,11.66
2017-03-29T00:33:50.373Z,11.6
2017-03-29T00:33:54.803Z,11.66
2017-03-29T00:33:59.106Z,11.67
2017-03-29T00:34:03.422Z,11.63
2017-03-29T00:34:07.621Z,11.69
2017-03-29T00:34:12.046Z,11.66
2017-03-29T00:34:16.480Z,11.63
2017-03-29T00:34:20.792Z,11.74
2017-03-29T00:34:25.221Z,11.67
2017-03-29T00:34:29.416Z,11.67
2017-03-29T00:34:33.843Z,11.59
2017-03-29T00:34:38.265Z,11.69
2017-03-29T00:34:42.691Z,11.63
2017-03-29T00:34:47.126Z,11.74
2017-03-29T00:34:51.436Z,11.63
2017-03-29T00:34:55.747Z,11.69
2017-03-29T00:35:00.191Z,11.64
2017-03-29T00:35:04.505Z,11.67
2017-03-29T00:35:08.931Z,11.66
2017-03-29T00:35:13.357Z,11.62
2017-03-29T00:35:17.795Z,11.66
2017-03-29T00:35:22.254Z,11.67
2017-03-29T00:35:26.561Z,11.69
2017-03-29T00:35:30.868Z,11.67
2017-03-29T00:35:35.325Z,11.66
2017-03-29T00:35:39.749Z,11.62
2017-03-29T00:35:44.175Z,11.64
2017-03-29T00:35:48.481Z,11.63
2017-03-29T00:35:52.946Z,11.69
2017-03-29T00:35:57.366Z,11.62
2017-03-29T00:36:01.789Z,11.6
2017-03-29T00:36:06.324Z,11.62
2017-03-29T00:36:10.650Z,11.63
2017-03-29T00:36:15.075Z,11.67
2017-03-29T00:36:19.500Z,11.63
2017-03-29T00:36:23.926Z,11.69
2017-03-29T00:36:28.235Z,11.57
2017-03-29T00:36:32.539Z,11.63
2017-03-29T00:36:36.612Z,11.6
2017-03-29T00:36:41.034Z,11.63
2017-03-29T00:36:45.507Z,11.72
2017-03-29T00:36:49.814Z,11.63
2017-03-29T00:36:54.246Z,11.64
2017-03-29T00:36:58.441Z,11.69
2017-03-29T00:37:03.070Z,11.66
2017-03-29T00:37:07.379Z,11.63
2017-03-29T00:37:11.808Z,11.66
2017-03-29T00:37:16.270Z,11.66
2017-03-29T00:37:20.704Z,11.59
2017-03-29T00:37:25.127Z,11.63
2017-03-29T00:37:29.557Z,11.64
2017-03-29T00:37:34.019Z,11.62
2017-03-29T00:37:38.325Z,11.57
2017-03-29T00:37:42.752Z,11.66
2017-03-29T00:37:47.197Z,11.64
2017-03-29T00:37:51.626Z,11.69
2017-03-29T00:37:56.052Z,11.72
2017-03-29T00:38:00.483Z,11.62
2017-03-29T00:38:05.014Z,11.69
2017-03-29T00:38:09.440Z,11.63
2017-03-29T00:38:13.749Z,11.69
2017-03-29T00:38:18.176Z,11.57
2017-03-29T00:38:22.603Z,11.63
2017-03-29T00:38:27.031Z,11.59
2017-03-29T00:38:31.346Z,11.6
2017-03-29T00:38:35.653Z,11.6
2017-03-29T00:38:40.077Z,11.66
2017-03-29T00:38:44.504Z,11.69
2017-03-29T00:38:48.933Z,11.59
2017-03-29T00:38:53.394Z,11.66
2017-03-29T00:38:57.815Z,11.57
2017-03-29T00:39:02.278Z,11.64
2017-03-29T00:39:06.703Z,11.69
2017-03-29T00:39:11.126Z,11.63
2017-03-29T00:39:15.555Z,11.6
2017-03-29T00:39:20.009Z,11.6
2017-03-29T00:39:24.441Z,11.67
2017-03-29T00:39:28.861Z,11.69
2017-03-29T00:39:33.286Z,11.63
2017-03-29T00:39:37.717Z,11.59
2017-03-29T00:39:42.178Z,11.64
2017-03-29T00:39:46.602Z,11.63
2017-03-29T00:39:51.028Z,11.62
2017-03-29T00:39:55.457Z,11.54
2017-03-29T00:39:59.888Z,11.6
2017-03-29T00:40:04.315Z,11.62
2017-03-29T00:40:08.387Z,11.59
2017-03-29T00:40:12.812Z,11.62
2017-03-29T00:40:17.240Z,11.6
2017-03-29T00:40:21.664Z,11.63
2017-03-29T00:40:25.974Z,11.69
2017-03-29T00:40:30.281Z,11.64
2017-03-29T00:40:34.711Z,11.67
2017-03-29T00:40:39.138Z,11.67
2017-03-29T00:40:43.450Z,11.59
2017-03-29T00:40:47.870Z,11.63
2017-03-29T00:40:52.300Z,11.59
2017-03-29T00:40:56.733Z,11.63
2017-03-29T00:41:01.160Z,11.6
2017-03-29T00:41:05.589Z,11.69
2017-03-29T00:41:09.897Z,11.67
2017-03-29T00:41:14.326Z,11.59
2017-03-29T00:41:18.756Z,11.6
2017-03-29T00:41:23.071Z,11.6
2017-03-29T00:41:27.258Z,11.67
2017-03-29T00:41:31.572Z,11.62
2017-03-29T00:41:36.034Z,11.59
2017-03-29T00:41:40.459Z,11.64
2017-03-29T00:41:44.770Z,11.62
2017-03-29T00:41:49.201Z,11.63
2017-03-29T00:41:53.510Z,11.6
2017-03-29T00:41:57.934Z,11.62
2017-03-29T00:42:02.612Z,11.6
2017-03-29T00:42:07.049Z,11.64
2017-03-29T00:42:11.511Z,11.56
2017-03-29T00:42:15.936Z,11.64
2017-03-29T00:42:20.247Z,11.56
2017-03-29T00:42:24.557Z,11.6
2017-03-29T00:42:28.898Z,11.57
2017-03-29T00:42:33.325Z,11.59
2017-03-29T00:42:37.746Z,11.57
2017-03-29T00:42:42.178Z,11.56
2017-03-29T00:42:46.522Z,11.54
2017-03-29T00:42:50.952Z,11.54
2017-03-29T00:42:55.376Z,11.62
2017-03-29T00:42:59.804Z,11.6
2017-03-29T00:43:04.386Z,11.6
2017-03-29T00:43:08.691Z,11.56
2017-03-29T00:43:13.118Z,11.6
2017-03-29T00:43:17.539Z,11.51
2017-03-29T00:43:21.977Z,11.54
2017-03-29T00:43:26.286Z,11.56
2017-03-29T00:43:30.720Z,11.51
2017-03-29T00:43:34.912Z,11.62
2017-03-29T00:43:39.365Z,11.54
2017-03-29T00:43:43.669Z,11.59
2017-03-29T00:43:48.109Z,11.56
2017-03-29T00:43:52.538Z,11.56
2017-03-29T00:43:56.965Z,11.57
2017-03-29T00:44:01.273Z,11.53
2017-03-29T00:44:05.697Z,11.6
2017-03-29T00:44:09.884Z,11.6
2017-03-29T00:44:14.199Z,11.6
2017-03-29T00:44:18.624Z,11.53
2017-03-29T00:44:23.049Z,11.63
2017-03-29T00:44:27.360Z,11.53
2017-03-29T00:44:31.801Z,11.51
2017-03-29T00:44:36.228Z,11.6
2017-03-29T00:44:40.652Z,11.49
2017-03-29T00:44:44.843Z,11.51
2017-03-29T00:44:49.152Z,11.49
2017-03-29T00:44:53.602Z,11.46
2017-03-29T00:44:58.024Z,11.56
2017-03-29T00:45:02.453Z,11.62
2017-03-29T00:45:06.884Z,11.49
2017-03-29T00:45:11.327Z,11.6
2017-03-29T00:45:15.636Z,11.49
2017-03-29T00:45:20.060Z,11.53
2017-03-29T00:45:24.491Z,11.51
2017-03-29T00:45:28.924Z,11.51
2017-03-29T00:45:32.993Z,11.57
2017-03-29T00:45:37.416Z,11.64
2017-03-29T00:45:41.843Z,11.54
2017-03-29T00:45:46.273Z,11.62
2017-03-29T00:45:50.589Z,11.49
2017-03-29T00:45:55.010Z,11.62
2017-03-29T00:45:59.441Z,11.51
2017-03-29T00:46:03.875Z,11.51
2017-03-29T00:46:08.302Z,11.6
2017-03-29T00:46:12.733Z,11.62
2017-03-29T00:46:17.162Z,11.56
2017-03-29T00:46:21.590Z,11.59
2017-03-29T00:46:26.021Z,11.6
2017-03-29T00:46:30.329Z,11.6
2017-03-29T00:46:34.753Z,11.57
2017-03-29T00:46:39.177Z,11.6
2017-03-29T00:46:43.599Z,11.63
2017-03-29T00:46:48.026Z,11.54
2017-03-29T00:46:52.458Z,11.54
2017-03-29T00:46:56.883Z,11.54
2017-03-29T00:47:01.320Z,11.56
2017-03-29T00:47:05.538Z,11.57
2017-03-29T00:47:09.724Z,11.63
2017-03-29T00:47:14.151Z,11.51
2017-03-29T00:47:18.583Z,11.62
2017-03-29T00:47:22.890Z,11.6
2017-03-29T00:47:27.314Z,11.6
2017-03-29T00:47:31.743Z,11.48
2017-03-29T00:47:36.168Z,11.54
2017-03-29T00:47:40.595Z,11.62
2017-03-29T00:47:45.028Z,11.62
2017-03-29T00:47:49.340Z,11.59
2017-03-29T00:47:53.760Z,11.48
2017-03-29T00:47:58.192Z,11.49
2017-03-29T00:48:02.620Z,11.54
2017-03-29T00:48:07.046Z,11.54
2017-03-29T00:48:11.232Z,11.6
2017-03-29T00:48:15.654Z,11.6
2017-03-29T00:48:20.084Z,11.59
2017-03-29T00:48:24.511Z,11.62
2017-03-29T00:48:28.931Z,11.48
2017-03-29T00:48:33.235Z,11.51
2017-03-29T00:48:37.578Z,11.48
2017-03-29T00:48:41.998Z,11.63
2017-03-29T00:48:46.425Z,11.49
2017-03-29T00:48:50.886Z,11.57
2017-03-29T00:48:55.309Z,11.49
2017-03-29T00:48:59.740Z,11.6
2017-03-29T00:49:04.169Z,11.59
2017-03-29T00:49:08.249Z,11.62
2017-03-29T00:49:12.691Z,11.54
2017-03-29T00:49:17.058Z,11.6
2017-03-29T00:49:21.372Z,11.62
2017-03-29T00:49:25.800Z,11.6
2017-03-29T00:49:30.223Z,11.63
2017-03-29T00:49:34.652Z,11.49
2017-03-29T00:49:39.077Z,11.63
2017-03-29T00:49:43.395Z,11.63
2017-03-29T00:49:47.821Z,11.59
2017-03-29T00:49:52.248Z,11.59
2017-03-29T00:49:56.679Z,11.54
2017-03-29T00:50:01.109Z,11.57
2017-03-29T00:50:05.470Z,11.56
2017-03-29T00:50:09.781Z,11.57
2017-03-29T00:50:14.095Z,11.63
2017-03-29T00:50:18.525Z,11.62
2017-03-29T00:50:22.959Z,11.59
2017-03-29T00:50:27.381Z,11.54
2017-03-29T00:50:31.809Z,11.42
2017-03-29T00:50:36.125Z,11.51
2017-03-29T00:50:40.597Z,11.53
2017-03-29T00:50:44.905Z,11.54
2017-03-29T00:50:49.214Z,11.53
2017-03-29T00:50:53.656Z,11.62
2017-03-29T00:50:58.122Z,11.48
2017-03-29T00:51:02.631Z,11.6
2017-03-29T00:51:07.062Z,11.6
2017-03-29T00:51:11.497Z,11.51
2017-03-29T00:51:15.923Z,11.46
2017-03-29T00:51:20.344Z,11.46
2017-03-29T00:51:24.771Z,11.59
2017-03-29T00:51:29.083Z,11.56
2017-03-29T00:51:33.518Z,11.54
2017-03-29T00:51:37.827Z,11.46
2017-03-29T00:51:42.255Z,11.59
2017-03-29T00:51:46.690Z,11.49
2017-03-29T00:51:51.011Z,11.48
2017-03-29T00:51:55.439Z,11.45
2017-03-29T00:51:59.755Z,11.45
2017-03-29T00:52:04.335Z,11.53
2017-03-29T00:52:08.529Z,11.6
2017-03-29T00:52:12.954Z,11.45
2017-03-29T00:52:17.386Z,11.46
2017-03-29T00:52:21.842Z,11.51
2017-03-29T00:52:26.264Z,11.42
2017-03-29T00:52:30.692Z,11.53
2017-03-29T00:52:35.121Z,11.63
2017-03-29T00:52:39.437Z,11.54
2017-03-29T00:52:43.862Z,11.48
2017-03-29T00:52:48.286Z,11.49
2017-03-29T00:52:52.716Z,11.53
2017-03-29T00:52:57.148Z,11.41
2017-03-29T00:53:01.574Z,11.51
2017-03-29T00:53:06.001Z,11.51
2017-03-29T00:53:10.436Z,11.54
2017-03-29T00:53:14.862Z,11.48
2017-03-29T00:53:19.292Z,11.53
2017-03-29T00:53:23.728Z,11.51
2017-03-29T00:53:28.151Z,11.46
2017-03-29T00:53:32.459Z,11.48
2017-03-29T00:53:36.888Z,11.49
2017-03-29T00:53:41.215Z,11.53
2017-03-29T00:53:45.641Z,11.46
2017-03-29T00:53:49.831Z,11.48
2017-03-29T00:53:54.254Z,11.51
2017-03-29T00:53:58.681Z,11.46
2017-03-29T00:54:03.357Z,11.48
2017-03-29T00:54:07.784Z,11.49
2017-03-29T00:54:12.219Z,11.49
2017-03-29T00:54:16.528Z,11.48
2017-03-29T00:54:20.951Z,11.51
2017-03-29T00:54:25.402Z,11.46
2017-03-29T00:54:29.840Z,11.51
2017-03-29T00:54:34.269Z,11.51
2017-03-29T00:54:38.577Z,11.51
2017-03-29T00:54:43.005Z,11.48
2017-03-29T00:54:47.318Z,11.44
2017-03-29T00:54:51.626Z,11.56
2017-03-29T00:54:56.056Z,11.49
2017-03-29T00:55:00.485Z,11.45
2017-03-29T00:55:04.916Z,11.56
2017-03-29T00:55:09.343Z,11.46
2017-03-29T00:55:13.770Z,11.49
2017-03-29T00:55:18.202Z,11.48
2017-03-29T00:55:22.389Z,11.42
2017-03-29T00:55:26.701Z,11.54
2017-03-29T00:55:31.135Z,11.48
2017-03-29T00:55:35.557Z,11.51
2017-03-29T00:55:39.988Z,11.54
2017-03-29T00:55:44.412Z,11.57
2017-03-29T00:55:48.840Z,11.44
2017-03-29T00:55:53.270Z,11.49
2017-03-29T00:55:57.696Z,11.53
2017-03-29T00:56:02.120Z,11.51
2017-03-29T00:56:06.437Z,11.46
2017-03-29T00:56:10.751Z,11.49
2017-03-29T00:56:15.059Z,11.48
2017-03-29T00:56:19.482Z,11.42
2017-03-29T00:56:23.793Z,11.51
2017-03-29T00:56:28.224Z,11.51
2017-03-29T00:56:32.648Z,11.44
2017-03-29T00:56:37.074Z,11.45
2017-03-29T00:56:41.511Z,11.48